aviador You're here:

LFRN Decoded Metar

RENNES in FRANCE
Report Time2018-06-17 23:30:00
UTC Time2018-06-17 23:53:15
Flight Rules mvfr MVFR
Wind210° at 05 kt
W.Decomp.*RWY 28: 1.9 kt HW 4.6 kt LCW
RWY 14: 1.5 kt HW 4.8 kt RCW
W.Rank210° ranks 1
Current wind is below 210° avg. (7.8)
Visibility9999 m
Phenomena:N/A
Clouds:Scattered 013 Hf
Overcast 022 Hf
Ceiling2,200 ft
Temp16°C (ISA +1)
Dew Point16°C (100% RH)
QNH1021 hPa
Density Alt240 ft
Elevation121 ft
Report Wrong Elevation
Raw Report
LFRN 172330Z AUTO 21005KT 9999 SCT013 OVC022 16/16 Q1021 TEMPO
4000 RADZ BKN005=

Extra information for LFRN:More info

Metar Taf Metar & Taf Last 4 Metars F.Rules Stats Wind Profile Meteogram Temp Stats Airport Information Weather charts Add Link Nearby VenuesMetar ALERT Operation Metar Decoded Social comments